Time;durP1;ratioP1;P1;durP2;ratioP2;P2;SDS_P1;SDS_P2;PMS_P1;PMS_P2;Temp;Humidity;BMP_temperature;BMP_pressure;BME280_temperature;BME280_humidity;BME280_pressure;Samples;Min_cycle;Max_cycle;Signal;HPM_P1;HPM_P2
2021/12/03 00:03:25;;;;;;;11.70;6.15;;;;;;;-2.35;87.65;100750.34;10494364;28;20036;-74
2021/12/03 00:08:26;;;;;;;11.43;6.53;;;;;;;-1.40;88.07;100889.66;10494242;28;20047;-74
2021/12/03 00:13:29;;;;;;;14.73;7.32;;;;;;;-2.11;87.85;100766.50;10499572;28;20045;-74
2021/12/03 00:18:31;;;;;;;20.23;6.47;;;;;;;-1.46;88.18;100866.50;10500591;28;20127;-74
2021/12/03 00:23:31;;;;;;;19.58;6.25;;;;;;;-1.78;87.30;100838.63;10501475;28;20139;-74
2021/12/03 00:28:33;;;;;;;13.13;6.15;;;;;;;-2.81;86.96;100665.03;10501420;28;20135;-74
2021/12/03 00:33:35;;;;;;;12.18;6.05;;;;;;;-1.57;88.08;100888.81;10499948;28;20087;-75
2021/12/03 00:38:44;;;;;;;15.13;6.70;;;;;;;-1.43;87.87;100887.19;10501672;28;20166;-74
2021/12/03 00:43:46;;;;;;;10.15;5.32;;;;;;;-1.54;88.04;100862.59;10500690;28;20051;-74
2021/12/03 00:48:50;;;;;;;12.60;5.80;;;;;;;-1.27;88.15;100894.22;10499038;28;20059;-74
2021/12/03 00:53:51;;;;;;;9.87;5.60;;;;;;;-2.79;87.31;100660.56;10497495;28;20134;-75
2021/12/03 00:58:52;;;;;;;10.98;4.55;;;;;;;-2.34;87.04;100762.44;10500029;28;20044;-75
2021/12/03 01:03:53;;;;;;;8.10;4.57;;;;;;;-1.75;87.41;100849.75;10499186;28;20041;-74
2021/12/03 01:08:54;;;;;;;6.68;4.13;;;;;;;-1.48;87.81;100893.56;10499426;28;20040;-74
2021/12/03 01:14:00;;;;;;;8.02;4.22;;;;;;;-1.43;88.54;100884.59;10498358;28;20098;-74
2021/12/03 01:19:03;;;;;;;6.80;3.78;;;;;;;-1.55;88.91;100846.13;10499354;28;20479;-74
2021/12/03 01:24:04;;;;;;;9.07;3.97;;;;;;;-1.65;88.74;100811.03;10498842;28;20090;-75
2021/12/03 01:29:06;;;;;;;5.60;3.33;;;;;;;-1.73;88.07;100789.78;10499127;28;20072;-74
2021/12/03 01:34:06;;;;;;;6.30;3.75;;;;;;;-2.34;88.24;100674.81;10498009;28;20063;-74
2021/12/03 01:39:07;;;;;;;8.43;4.18;;;;;;;-2.24;88.16;100666.53;10497788;28;20044;-74
2021/12/03 01:44:09;;;;;;;7.95;3.65;;;;;;;-2.30;88.22;100660.72;10498115;28;20036;-75
2021/12/03 01:49:12;;;;;;;7.30;3.75;;;;;;;-0.80;88.32;100907.41;10498009;28;20063;-74
2021/12/03 01:54:13;;;;;;;7.85;3.55;;;;;;;-1.84;88.01;100752.09;10498963;28;20403;-75
2021/12/03 01:59:14;;;;;;;5.53;3.20;;;;;;;-1.41;88.16;100817.63;10498023;28;20036;-75
2021/12/03 02:04:16;;;;;;;5.57;3.60;;;;;;;-1.93;88.09;100736.94;10496800;28;20032;-75
2021/12/03 02:09:17;;;;;;;7.47;3.67;;;;;;;-1.87;87.66;100769.63;10496367;28;20124;-75
2021/12/03 02:14:17;;;;;;;6.30;3.72;;;;;;;-1.35;88.27;100867.72;10497263;28;20477;-75
2021/12/03 02:19:19;;;;;;;9.98;4.28;;;;;;;-1.06;88.23;100919.19;10497332;28;20492;-74
2021/12/03 02:24:21;;;;;;;11.65;4.13;;;;;;;-1.30;88.01;100891.78;10496887;28;20554;-75
2021/12/03 02:29:22;;;;;;;6.00;3.15;;;;;;;-1.33;87.68;100889.34;10496557;28;20040;-75
2021/12/03 02:34:23;;;;;;;9.15;3.30;;;;;;;-2.39;88.14;100734.06;10496752;28;20044;-74
2021/12/03 02:39:24;;;;;;;7.25;3.42;;;;;;;-1.34;87.10;100927.59;10496762;28;20194;-74
2021/12/03 02:44:25;;;;;;;8.80;3.15;;;;;;;-1.58;87.84;100921.84;10496122;28;20039;-75
2021/12/03 02:49:26;;;;;;;8.98;3.80;;;;;;;-2.56;87.89;100760.03;10496683;28;20056;-75
2021/12/03 02:54:27;;;;;;;16.08;4.30;;;;;;;-2.75;87.55;100731.50;10495569;28;20040;-75
2021/12/03 02:59:28;;;;;;;7.40;3.90;;;;;;;-2.26;87.67;100803.69;10495831;28;20044;-74
2021/12/03 03:04:29;;;;;;;11.32;3.80;;;;;;;-1.50;87.90;100957.94;10484976;28;20041;-75
2021/12/03 03:09:31;;;;;;;9.38;3.92;;;;;;;-2.39;87.71;100835.53;10481756;28;20072;-76
2021/12/03 03:14:32;;;;;;;13.35;3.50;;;;;;;-2.42;87.59;100825.25;10453531;28;20040;-77
2021/12/03 03:19:33;;;;;;;7.70;3.78;;;;;;;-1.77;87.96;100934.06;10454748;28;20049;-77
2021/12/03 03:24:34;;;;;;;5.55;3.50;;;;;;;-2.53;87.66;100817.13;10453386;28;20496;-77
2021/12/03 03:29:35;;;;;;;10.00;3.95;;;;;;;-2.67;87.45;100791.75;10473189;28;20040;-76
2021/12/03 03:34:36;;;;;;;12.40;4.18;;;;;;;-3.03;87.27;100724.13;10489920;28;20499;-77
2021/12/03 03:39:37;;;;;;;9.73;3.53;;;;;;;-2.12;87.61;100882.81;10479445;28;20434;-77
2021/12/03 03:44:39;;;;;;;22.48;3.92;;;;;;;-3.00;87.58;100742.19;10494515;28;20059;-77
2021/12/03 03:49:41;;;;;;;5.85;3.13;;;;;;;-2.08;86.63;100918.16;10501087;28;20052;-77
2021/12/03 03:54:42;;;;;;;6.78;4.10;;;;;;;-2.04;87.12;100951.88;10499646;28;20442;-75
2021/12/03 03:59:43;;;;;;;18.77;4.82;;;;;;;-2.05;87.74;100940.63;10475790;28;20595;-71
2021/12/03 04:04:44;;;;;;;8.25;4.00;;;;;;;-2.99;87.84;100772.47;10466419;28;20048;-73
2021/12/03 04:09:45;;;;;;;17.63;5.93;;;;;;;-2.73;87.56;100818.03;10459331;28;20047;-76
2021/12/03 04:14:45;;;;;;;9.05;5.53;;;;;;;-2.57;87.87;100880.63;10460566;28;20039;-76
2021/12/03 04:19:46;;;;;;;13.88;6.55;;;;;;;-4.30;87.53;100580.19;10460447;28;20044;-74
2021/12/03 04:24:47;;;;;;;12.15;5.20;;;;;;;-3.26;87.58;100745.97;10460323;28;20120;-79
2021/12/03 04:29:48;;;;;;;23.25;6.00;;;;;;;-2.83;87.51;100812.44;10459253;28;20115;-73
2021/12/03 04:34:49;;;;;;;12.23;5.60;;;;;;;-2.03;87.87;100953.53;10458980;28;20045;-73
2021/12/03 04:39:51;;;;;;;12.98;5.07;;;;;;;-3.41;88.15;100729.38;10458366;28;20043;-76
2021/12/03 04:44:52;;;;;;;19.98;5.72;;;;;;;-2.18;87.50;100919.53;10475366;28;20573;-80
2021/12/03 04:49:53;;;;;;;25.83;5.38;;;;;;;-2.49;87.78;100847.25;10476042;28;20083;-78
2021/12/03 04:54:54;;;;;;;16.35;5.47;;;;;;;-2.95;87.57;100737.63;10493736;28;20064;-78
2021/12/03 04:59:54;;;;;;;15.35;5.25;;;;;;;-5.23;86.95;100356.25;10495808;28;20040;-77
2021/12/03 05:05:00;;;;;;;21.58;5.72;;;;;;;-2.50;87.29;100740.69;10465111;28;20480;-77
2021/12/03 05:10:00;;;;;;;11.57;5.40;;;;;;;-1.77;86.91;100846.34;10458131;28;20037;-77
2021/12/03 05:15:02;;;;;;;13.20;4.82;;;;;;;-2.03;86.83;100753.94;10458521;28;20461;-77
2021/12/03 05:20:03;;;;;;;9.88;5.25;;;;;;;-0.80;86.84;100923.06;10457321;28;20033;-78
2021/12/03 05:25:04;;;;;;;15.13;5.55;;;;;;;-1.23;86.73;100794.09;10457106;28;20051;-77
2021/12/03 05:30:08;;;;;;;10.90;5.30;;;;;;;0.16;86.39;100973.56;10472390;28;20135;-78
2021/12/03 05:35:10;;;;;;;13.18;5.47;;;;;;;0.10;86.36;100919.88;10455915;28;20033;-77
2021/12/03 05:40:13;;;;;;;41.22;19.33;;;;;;;-0.51;86.23;100777.97;10456314;28;20068;-77
2021/12/03 05:45:18;;;;;;;37.28;18.10;;;;;;;0.66;86.42;100900.06;10457528;28;20060;-77
2021/12/03 05:50:20;;;;;;;16.17;8.13;;;;;;;1.45;86.04;100966.84;10456822;28;20156;-77
2021/12/03 05:55:21;;;;;;;12.40;6.15;;;;;;;1.73;85.13;100983.47;10472331;28;20048;-76
2021/12/03 06:00:36;;;;;;;10.52;6.00;;;;;;;2.04;85.30;100974.53;10456240;28;20036;-76
2021/12/03 06:05:40;;;;;;;11.07;6.03;;;;;;;2.23;84.46;101001.22;10456116;28;20033;-76
2021/12/03 06:10:42;;;;;;;10.73;5.50;;;;;;;2.48;83.66;100984.78;10470650;28;20052;-77
2021/12/03 06:15:42;;;;;;;10.35;5.20;;;;;;;1.55;82.78;100797.75;10455029;28;20087;-76
2021/12/03 06:20:43;;;;;;;8.77;5.85;;;;;;;2.02;82.29;100851.44;10455772;28;20071;-76
2021/12/03 06:25:46;;;;;;;11.02;6.32;;;;;;;2.73;80.96;100925.44;10455750;28;20086;-76
2021/12/03 06:30:47;;;;;;;11.55;5.22;;;;;;;2.40;80.46;100828.88;10454558;28;20072;-76
2021/12/03 06:35:49;;;;;;;9.40;5.65;;;;;;;3.12;79.83;100918.41;10470347;28;20064;-76
2021/12/03 06:40:51;;;;;;;10.70;5.72;;;;;;;3.49;79.53;100927.19;10454522;28;20045;-77
2021/12/03 06:45:52;;;;;;;8.23;5.50;;;;;;;3.50;78.94;100912.25;10455668;28;20033;-77
2021/12/03 06:50:53;;;;;;;9.00;5.40;;;;;;;3.46;79.20;100885.38;10454686;28;20045;-77
2021/12/03 06:55:57;;;;;;;9.82;5.85;;;;;;;3.95;79.22;100930.94;10455079;28;20040;-76
2021/12/03 07:00:59;;;;;;;9.25;5.68;;;;;;;4.25;78.54;100954.19;10454948;28;20092;-77
2021/12/03 07:06:00;;;;;;;10.20;6.28;;;;;;;3.99;78.61;100864.91;10454627;28;20044;-76
2021/12/03 07:11:01;;;;;;;14.73;7.28;;;;;;;3.16;77.77;100678.34;10454192;28;20040;-76
2021/12/03 07:16:05;;;;;;;13.43;6.88;;;;;;;4.46;77.49;100851.81;10452362;28;20041;-76
2021/12/03 07:21:06;;;;;;;11.00;7.07;;;;;;;4.35;76.74;100768.44;10457609;28;20098;-76
2021/12/03 07:26:07;;;;;;;14.30;7.53;;;;;;;4.92;75.46;100849.09;10461935;28;20076;-77
2021/12/03 07:31:08;;;;;;;16.48;9.18;;;;;;;5.61;74.20;100913.97;10462267;28;20536;-76
2021/12/03 07:36:10;;;;;;;12.57;7.22;;;;;;;5.56;74.27;100855.50;10462466;28;20072;-76
2021/12/03 07:41:10;;;;;;;17.40;6.88;;;;;;;5.10;72.77;100701.97;10461730;28;20056;-76
2021/12/03 07:46:12;;;;;;;10.63;5.75;;;;;;;6.32;72.41;100846.63;10461378;28;20057;-76
2021/12/03 07:51:17;;;;;;;6.28;3.85;;;;;;;6.32;71.83;100772.75;10461458;28;20037;-76
2021/12/03 07:56:17;;;;;;;7.78;4.13;;;;;;;6.65;71.91;100797.25;10460624;28;20040;-76
2021/12/03 08:01:19;;;;;;;7.18;4.10;;;;;;;7.13;72.38;100848.59;10476368;28;20488;-76
2021/12/03 08:06:20;;;;;;;6.85;4.60;;;;;;;6.90;72.21;100755.50;10460978;28;20044;-76
2021/12/03 08:11:21;;;;;;;7.85;4.57;;;;;;;7.13;72.75;100767.53;10460421;28;20061;-75
2021/12/03 08:16:24;;;;;;;8.80;6.10;;;;;;;7.66;73.63;100825.38;10461394;28;20072;-76
2021/12/03 08:21:25;;;;;;;9.55;6.28;;;;;;;7.83;73.55;100825.66;10460201;28;20048;-76
2021/12/03 08:26:28;;;;;;;8.60;5.90;;;;;;;7.92;73.71;100791.25;10475779;28;20045;-76
2021/12/03 08:31:29;;;;;;;7.95;5.13;;;;;;;7.76;73.23;100752.16;10458887;28;20040;-76
2021/12/03 08:36:30;;;;;;;10.00;6.00;;;;;;;6.85;72.73;100587.75;10460370;28;20036;-76
2021/12/03 08:41:31;;;;;;;16.52;5.85;;;;;;;7.95;73.04;100755.75;10459881;28;20029;-75
2021/12/03 08:46:35;;;;;;;14.15;6.32;;;;;;;7.02;73.89;100582.72;10459307;28;20122;-76
2021/12/03 08:56:44;;;;;;;15.38;6.18;;;;;;;7.56;73.62;100660.59;10458921;28;20165;-76
2021/12/03 09:01:45;;;;;;;10.30;6.82;;;;;;;8.29;73.75;100772.00;10457998;28;20131;-76
2021/12/03 09:06:46;;;;;;;10.60;6.57;;;;;;;7.45;74.29;100656.31;10473801;28;20099;-76
2021/12/03 09:11:46;;;;;;;14.23;7.32;;;;;;;7.32;75.23;100622.19;10457597;28;20048;-76
2021/12/03 09:16:54;;;;;;;13.07;8.27;;;;;;;7.44;75.70;100645.84;10473401;28;20082;-77
2021/12/03 09:21:55;;;;;;;11.85;7.93;;;;;;;7.44;75.87;100649.31;10472949;28;20519;-76
2021/12/03 09:26:56;;;;;;;13.18;8.10;;;;;;;7.81;76.61;100753.53;10457859;28;20041;-76
2021/12/03 09:31:59;;;;;;;13.68;7.85;;;;;;;7.22;77.35;100705.13;10457654;28;20037;-76
2021/12/03 09:36:59;;;;;;;13.00;8.80;;;;;;;6.06;78.84;100553.41;10457406;28;20087;-76
2021/12/03 09:42:00;;;;;;;20.10;9.32;;;;;;;6.34;79.57;100619.56;10472452;28;20036;-77
2021/12/03 09:47:01;;;;;;;13.50;8.80;;;;;;;6.09;80.05;100550.50;10472185;28;20061;-76
2021/12/03 09:57:12;;;;;;;12.48;7.22;;;;;;;5.38;80.80;100458.19;10456655;28;20102;-75
2021/12/03 10:28:44;;;;;;;14.90;7.80;;;;;;;6.71;80.91;100588.13;10454918;28;20043;-76
2021/12/03 10:38:57;;;;;;;12.33;8.03;;;;;;;7.19;81.94;100686.88;10454657;28;20041;-76
2021/12/03 11:00:10;;;;;;;11.20;7.50;;;;;;;7.35;80.69;100625.56;10454962;28;20032;-75
2021/12/03 11:27:40;;;;;;;12.30;7.05;;;;;;;7.53;80.78;100645.00;10437736;28;20470;-76
2021/12/03 12:20:26;;;;;;;16.25;6.38;;;;;;;7.05;84.46;100640.56;10502005;28;20058;-71
2021/12/03 12:25:27;;;;;;;10.93;6.32;;;;;;;6.75;84.44;100586.06;10489508;28;20454;-74
2021/12/03 12:42:22;;;;;;;8.32;6.20;;;;;;;7.35;84.48;100688.97;10459495;28;20496;-75
2021/12/03 12:58:33;;;;;;;11.43;6.35;;;;;;;6.74;85.48;100653.03;10460336;28;20036;-74
2021/12/03 13:35:21;;;;;;;15.00;6.43;;;;;;;5.84;88.03;100701.22;10449104;28;20052;-74
2021/12/03 14:11:40;;;;;;;17.33;8.52;;;;;;;3.22;89.28;100553.69;10471290;28;20456;-75
2021/12/03 14:48:08;;;;;;;82.95;35.47;;;;;;;1.32;90.05;100527.03;10471595;28;20067;-76
2021/12/03 14:58:29;;;;;;;85.55;38.25;;;;;;;2.23;91.25;100694.53;10470259;28;20386;-76
2021/12/03 15:04:01;;;;;;;73.93;30.25;;;;;;;1.10;90.08;100526.78;10475282;28;20040;-75
2021/12/03 15:24:49;;;;;;;32.35;15.98;;;;;;;0.52;90.99;100460.06;10470641;28;20083;-76
2021/12/03 15:35:07;;;;;;;40.67;19.30;;;;;;;0.81;90.57;100563.56;10476747;28;20041;-75
2021/12/03 15:56:44;;;;;;;31.48;15.38;;;;;;;0.89;91.08;100610.97;10486063;28;20119;-75
2021/12/03 16:07:18;;;;;;;35.05;17.30;;;;;;;1.27;91.86;100724.56;10477943;28;20553;-76
2021/12/03 16:12:43;;;;;;;32.53;14.88;;;;;;;0.60;91.82;100630.28;10484310;28;20548;-79
2021/12/03 16:49:33;;;;;;;113.30;19.90;;;;;;;1.09;92.95;100703.03;10454535;28;20052;-76
2021/12/03 16:59:33;;;;;;;67.85;19.23;;;;;;;1.23;91.78;100737.00;10450826;28;20523;-76
2021/12/03 17:56:38;;;;;;;165.32;15.55;;;;;;;1.70;93.46;100724.38;10452918;28;20170;-75
2021/12/03 18:06:57;;;;;;;187.65;15.90;;;;;;;1.14;94.04;100612.84;10451702;28;20400;-74
2021/12/03 18:12:17;;;;;;;281.98;33.15;;;;;;;1.88;94.46;100717.88;10452362;28;20048;-75
2021/12/03 18:59:08;;;;;;;226.65;14.27;;;;;;;1.30;95.73;100568.16;10451578;28;20037;-74
2021/12/03 19:04:21;;;;;;;416.38;18.15;;;;;;;1.88;95.56;100685.63;10451476;28;20451;-76
2021/12/03 19:09:27;;;;;;;263.67;13.10;;;;;;;2.01;94.96;100744.13;10451431;28;20044;-77
2021/12/03 19:14:33;;;;;;;287.70;12.00;;;;;;;1.69;95.21;100715.66;10450310;28;20124;-77
2021/12/03 19:19:39;;;;;;;121.75;8.82;;;;;;;1.88;95.23;100743.25;10458862;28;20051;-76
2021/12/03 19:24:40;;;;;;;172.38;9.82;;;;;;;0.69;94.92;100553.91;10464009;28;20131;-77
2021/12/03 19:29:43;;;;;;;97.68;8.70;;;;;;;-0.15;94.73;100421.69;10499659;28;20048;-77
2021/12/03 19:34:44;;;;;;;41.95;7.97;;;;;;;1.32;95.26;100667.53;10500437;28;20460;-77
2021/12/03 19:39:45;;;;;;;30.90;7.10;;;;;;;1.72;95.46;100741.66;10500426;28;20068;-77
2021/12/03 19:44:53;;;;;;;105.70;7.93;;;;;;;1.42;95.86;100730.59;10500594;28;20089;-77
2021/12/03 19:50:17;;;;;;;75.30;7.55;;;;;;;1.62;95.31;100747.63;10498823;28;20087;-77
2021/12/03 19:55:18;;;;;;;;;;;;;;;1.71;95.42;100739.16;10500128;28;20052;-77
2021/12/03 20:00:22;;;;;;;107.07;9.30;;;;;;;1.70;95.72;100769.72;10499640;28;19916;-77
2021/12/03 20:05:23;;;;;;;108.55;9.25;;;;;;;0.79;95.75;100617.75;10499476;28;20132;-76
2021/12/03 20:10:27;;;;;;;107.50;9.93;;;;;;;0.39;95.29;100562.78;10498158;28;20043;-77
2021/12/03 20:15:34;;;;;;;119.65;10.32;;;;;;;-0.26;95.98;100438.00;10514899;28;20072;-80
2021/12/03 20:20:35;;;;;;;193.55;11.52;;;;;;;1.55;96.06;100736.69;10498651;28;20041;-76
2021/12/03 20:30:50;;;;;;;187.07;11.55;;;;;;;1.54;96.22;100728.00;10500182;28;20491;-76
2021/12/03 20:41:10;;;;;;;139.52;10.85;;;;;;;1.85;97.07;100746.91;10501500;28;20040;-76
2021/12/03 20:52:05;;;;;;;73.50;7.80;;;;;;;1.24;96.45;100678.47;10501104;28;20454;-76
2021/12/03 21:12:47;;;;;;;124.55;8.48;;;;;;;0.86;97.49;100650.38;10500005;28;20036;-76
2021/12/03 21:23:08;;;;;;;123.40;7.60;;;;;;;1.59;96.96;100746.03;10499242;28;20052;-76
2021/12/03 21:39:20;;;;;;;163.65;9.05;;;;;;;0.43;97.43;100522.44;10498725;28;20492;-79
2021/12/03 21:44:03;;;;;;;191.35;10.23;;;;;;;1.73;97.92;100750.34;10495702;28;20403;-76
2021/12/03 21:49:06;;;;;;;128.32;10.00;;;;;;;1.80;97.93;100759.50;10498412;28;20061;-76
2021/12/03 21:54:07;;;;;;;254.85;12.80;;;;;;;1.98;98.27;100789.72;10498438;28;20514;-76
2021/12/03 21:59:09;;;;;;;142.05;10.57;;;;;;;1.66;98.11;100744.69;10498204;28;20048;-76
2021/12/03 22:04:10;;;;;;;217.25;10.60;;;;;;;1.50;98.86;100683.81;10498024;28;20036;-76
2021/12/03 22:09:12;;;;;;;114.00;8.15;;;;;;;0.42;98.40;100505.09;10497999;28;20051;-76
2021/12/03 22:14:13;;;;;;;208.35;9.27;;;;;;;1.83;99.07;100738.34;10497316;28;20067;-76
2021/12/03 22:19:16;;;;;;;125.10;7.68;;;;;;;1.78;98.68;100729.94;10497289;28;20052;-76
2021/12/03 22:24:17;;;;;;;184.27;10.00;;;;;;;1.03;98.95;100590.94;10496793;28;20119;-77
2021/12/03 22:29:18;;;;;;;115.90;7.70;;;;;;;1.27;98.66;100641.66;10496833;28;20098;-76
2021/12/03 22:34:19;;;;;;;171.32;8.18;;;;;;;1.22;98.99;100642.88;10497281;28;20036;-77
2021/12/03 22:39:20;;;;;;;102.78;5.72;;;;;;;2.12;98.96;100780.06;10495115;28;20044;-77
2021/12/03 22:44:22;;;;;;;114.93;6.65;;;;;;;1.16;98.92;100628.41;10496014;28;20044;-77
2021/12/03 22:54:41;;;;;;;147.55;7.68;;;;;;;0.36;98.61;100496.78;10496130;28;20381;-76
2021/12/03 22:59:42;;;;;;;160.23;8.30;;;;;;;1.68;98.78;100703.53;10496205;28;20102;-77
2021/12/03 23:04:44;;;;;;;112.07;8.38;;;;;;;1.20;99.64;100645.63;10496560;28;20048;-76
2021/12/03 23:09:45;;;;;;;127.93;6.78;;;;;;;1.03;99.16;100619.72;10495551;28;20119;-76
2021/12/03 23:14:46;;;;;;;113.75;8.20;;;;;;;2.15;99.92;100785.13;10495400;28;20467;-76
2021/12/03 23:19:46;;;;;;;93.93;7.45;;;;;;;2.02;99.18;100757.09;10496651;28;20071;-77
2021/12/03 23:24:47;;;;;;;172.07;6.95;;;;;;;1.91;99.04;100749.13;10495955;28;20106;-77
2021/12/03 23:29:49;;;;;;;184.60;8.65;;;;;;;1.92;99.53;100763.09;10495991;28;20118;-76
2021/12/03 23:34:50;;;;;;;141.57;7.38;;;;;;;2.00;99.27;100779.94;10510770;28;20115;-76
2021/12/03 23:39:50;;;;;;;204.77;8.68;;;;;;;1.81;100.00;100761.16;10495668;28;20082;-77
2021/12/03 23:44:52;;;;;;;114.07;7.00;;;;;;;1.50;100.00;100682.03;10511945;28;20036;-77
2021/12/03 23:49:53;;;;;;;200.70;8.05;;;;;;;1.99;100.00;100759.09;10495719;28;20052;-77
2021/12/03 23:54:58;;;;;;;317.65;10.40;;;;;;;2.10;99.60;100761.84;10494570;28;20052;-76
2021/12/03 23:59:59;;;;;;;94.30;6.05;;;;;;;0.96;99.87;100573.94;10495295;28;20045;-77
